Terminal Aerodrome Forecast
Issued by NWS Sioux Falls, SD

Home | Current Version | Previous Version | Text Only | Print | Product List | Glossary On
Versions: 1 2 3 4 5 6 7 8 9 10 11 12 13
000
FTUS43 KFSD 052323
TAFHON
TAF
KHON 052323Z 0600/0624 18009KT P6SM SKC
     FM060600 17008KT P6SM SKC WS020/21040KT
     FM061300 19009KT P6SM FEW200
     FM061700 23010KT P6SM FEW200
     FM062000 27008KT P6SM SCT200
     FM062300 36007KT P6SM SCT200=

USA.gov is the U.S. government's official web portal to all federal, state and local government web resources and services.